sensor_id;sensor_type;location;lat;lon;timestamp;pressure;altitude;pressure_sealevel;temperature;humidity
12594;BME280;6362;50.208;9.182;2023-03-16T00:00:21;100396.19;;;-1.38;87.50
12594;BME280;6362;50.208;9.182;2023-03-16T00:02:46;100391.56;;;-1.45;87.87
12594;BME280;6362;50.208;9.182;2023-03-16T00:05:13;100400.03;;;-1.46;88.60
12594;BME280;6362;50.208;9.182;2023-03-16T00:07:39;100392.38;;;-1.46;88.24
12594;BME280;6362;50.208;9.182;2023-03-16T00:10:06;100397.56;;;-1.44;88.39
12594;BME280;6362;50.208;9.182;2023-03-16T00:12:32;100405.94;;;-1.47;88.06
12594;BME280;6362;50.208;9.182;2023-03-16T00:14:59;100403.25;;;-1.50;87.93
12594;BME280;6362;50.208;9.182;2023-03-16T00:17:25;100403.44;;;-1.45;88.08
12594;BME280;6362;50.208;9.182;2023-03-16T00:19:55;100395.72;;;-1.47;88.15
12594;BME280;6362;50.208;9.182;2023-03-16T00:22:28;100402.44;;;-1.49;87.89
12594;BME280;6362;50.208;9.182;2023-03-16T00:24:55;100399.59;;;-1.55;87.91
12594;BME280;6362;50.208;9.182;2023-03-16T00:27:22;100405.41;;;-1.57;88.50
12594;BME280;6362;50.208;9.182;2023-03-16T00:29:49;100403.44;;;-1.63;88.85
12594;BME280;6362;50.208;9.182;2023-03-16T00:32:26;100412.03;;;-1.61;88.52
12594;BME280;6362;50.208;9.182;2023-03-16T00:34:53;100405.13;;;-1.64;88.75
12594;BME280;6362;50.208;9.182;2023-03-16T00:37:19;100399.97;;;-1.65;88.38
12594;BME280;6362;50.208;9.182;2023-03-16T00:39:47;100402.34;;;-1.68;88.92
12594;BME280;6362;50.208;9.182;2023-03-16T00:42:14;100401.47;;;-1.69;89.03
12594;BME280;6362;50.208;9.182;2023-03-16T00:44:40;100390.47;;;-1.68;88.54
12594;BME280;6362;50.208;9.182;2023-03-16T00:47:06;100399.72;;;-1.70;89.01
12594;BME280;6362;50.208;9.182;2023-03-16T00:49:33;100393.81;;;-1.69;88.81
12594;BME280;6362;50.208;9.182;2023-03-16T00:52:06;100394.56;;;-1.71;88.44
12594;BME280;6362;50.208;9.182;2023-03-16T00:54:32;100381.72;;;-1.73;88.70
12594;BME280;6362;50.208;9.182;2023-03-16T00:56:58;100380.78;;;-1.75;88.88
12594;BME280;6362;50.208;9.182;2023-03-16T00:59:25;100381.00;;;-1.70;88.11
12594;BME280;6362;50.208;9.182;2023-03-16T01:01:54;100373.06;;;-1.76;87.81
12594;BME280;6362;50.208;9.182;2023-03-16T01:04:20;100377.88;;;-1.82;87.74
12594;BME280;6362;50.208;9.182;2023-03-16T01:06:46;100371.66;;;-1.88;87.97
12594;BME280;6362;50.208;9.182;2023-03-16T01:09:12;100369.03;;;-1.89;87.93
12594;BME280;6362;50.208;9.182;2023-03-16T01:11:39;100369.75;;;-1.92;88.12
12594;BME280;6362;50.208;9.182;2023-03-16T01:14:08;100362.91;;;-1.93;87.93
12594;BME280;6362;50.208;9.182;2023-03-16T01:16:33;100367.28;;;-1.90;88.10
12594;BME280;6362;50.208;9.182;2023-03-16T01:18:59;100370.78;;;-1.88;87.46
12594;BME280;6362;50.208;9.182;2023-03-16T01:21:25;100371.50;;;-1.91;87.48
12594;BME280;6362;50.208;9.182;2023-03-16T01:23:52;100368.53;;;-1.82;88.35
12594;BME280;6362;50.208;9.182;2023-03-16T01:26:18;100366.00;;;-1.82;88.21
12594;BME280;6362;50.208;9.182;2023-03-16T01:28:44;100370.22;;;-1.82;87.90
12594;BME280;6362;50.208;9.182;2023-03-16T01:31:12;100375.63;;;-1.76;87.97
12594;BME280;6362;50.208;9.182;2023-03-16T01:33:42;100371.31;;;-1.77;88.32
12594;BME280;6362;50.208;9.182;2023-03-16T01:36:11;100363.75;;;-1.76;87.66
12594;BME280;6362;50.208;9.182;2023-03-16T01:38:37;100361.84;;;-1.80;87.88
12594;BME280;6362;50.208;9.182;2023-03-16T01:41:03;100360.97;;;-1.80;87.17
12594;BME280;6362;50.208;9.182;2023-03-16T01:43:31;100356.38;;;-1.88;87.91
12594;BME280;6362;50.208;9.182;2023-03-16T01:48:53;100345.06;;;-1.93;87.51
12594;BME280;6362;50.208;9.182;2023-03-16T01:51:30;100348.63;;;-1.89;87.88
12594;BME280;6362;50.208;9.182;2023-03-16T01:54:05;100345.31;;;-1.88;87.96
12594;BME280;6362;50.208;9.182;2023-03-16T01:56:47;100339.53;;;-1.84;87.48
12594;BME280;6362;50.208;9.182;2023-03-16T01:59:18;100341.38;;;-1.81;87.98
12594;BME280;6362;50.208;9.182;2023-03-16T02:01:45;100333.84;;;-1.78;87.74
12594;BME280;6362;50.208;9.182;2023-03-16T02:04:43;100327.97;;;-1.77;87.29
12594;BME280;6362;50.208;9.182;2023-03-16T02:07:11;100332.97;;;-1.79;87.47
12594;BME280;6362;50.208;9.182;2023-03-16T02:09:43;100322.88;;;-1.77;87.33
12594;BME280;6362;50.208;9.182;2023-03-16T02:12:13;100317.91;;;-1.74;87.46
12594;BME280;6362;50.208;9.182;2023-03-16T02:14:44;100317.03;;;-1.75;87.07
12594;BME280;6362;50.208;9.182;2023-03-16T02:17:10;100311.38;;;-1.69;87.37
12594;BME280;6362;50.208;9.182;2023-03-16T02:22:34;100315.72;;;-1.67;86.82
12594;BME280;6362;50.208;9.182;2023-03-16T02:25:01;100324.28;;;-1.66;86.73
12594;BME280;6362;50.208;9.182;2023-03-16T02:27:38;100326.94;;;-1.63;85.97
12594;BME280;6362;50.208;9.182;2023-03-16T02:32:33;100344.97;;;-1.60;86.47
12594;BME280;6362;50.208;9.182;2023-03-16T02:35:01;100344.28;;;-1.56;85.81
12594;BME280;6362;50.208;9.182;2023-03-16T02:37:27;100340.78;;;-1.58;85.82
12594;BME280;6362;50.208;9.182;2023-03-16T02:39:53;100346.06;;;-1.55;86.03
12594;BME280;6362;50.208;9.182;2023-03-16T02:42:21;100336.63;;;-1.56;86.30
12594;BME280;6362;50.208;9.182;2023-03-16T02:44:51;100342.97;;;-1.30;85.02
12594;BME280;6362;50.208;9.182;2023-03-16T02:47:35;100333.63;;;-1.29;84.11
12594;BME280;6362;50.208;9.182;2023-03-16T02:50:03;100324.47;;;-1.44;84.54
12594;BME280;6362;50.208;9.182;2023-03-16T02:52:35;100325.34;;;-1.43;84.38
12594;BME280;6362;50.208;9.182;2023-03-16T02:55:01;100331.31;;;-1.43;84.42
12594;BME280;6362;50.208;9.182;2023-03-16T02:57:27;100327.63;;;-1.49;84.82
12594;BME280;6362;50.208;9.182;2023-03-16T02:59:52;100318.94;;;-1.71;85.42
12594;BME280;6362;50.208;9.182;2023-03-16T03:02:18;100314.06;;;-1.66;85.17
12594;BME280;6362;50.208;9.182;2023-03-16T03:04:43;100318.50;;;-1.80;85.17
12594;BME280;6362;50.208;9.182;2023-03-16T03:07:12;100313.63;;;-1.93;85.87
12594;BME280;6362;50.208;9.182;2023-03-16T03:09:39;100307.66;;;-1.94;86.54
12594;BME280;6362;50.208;9.182;2023-03-16T03:12:10;100296.59;;;-1.94;87.15
12594;BME280;6362;50.208;9.182;2023-03-16T03:14:36;100298.03;;;-1.81;87.27
12594;BME280;6362;50.208;9.182;2023-03-16T03:17:05;100296.88;;;-1.70;86.78
12594;BME280;6362;50.208;9.182;2023-03-16T03:19:34;100295.47;;;-1.64;86.74
12594;BME280;6362;50.208;9.182;2023-03-16T03:22:02;100297.38;;;-1.60;86.48
12594;BME280;6362;50.208;9.182;2023-03-16T03:24:29;100291.75;;;-1.52;85.83
12594;BME280;6362;50.208;9.182;2023-03-16T03:26:56;100291.81;;;-1.51;85.74
12594;BME280;6362;50.208;9.182;2023-03-16T03:29:21;100292.69;;;-1.50;85.77
12594;BME280;6362;50.208;9.182;2023-03-16T03:31:46;100290.88;;;-1.53;85.78
12594;BME280;6362;50.208;9.182;2023-03-16T03:34:12;100296.19;;;-1.48;85.52
12594;BME280;6362;50.208;9.182;2023-03-16T03:36:37;100292.91;;;-1.46;85.22
12594;BME280;6362;50.208;9.182;2023-03-16T03:39:03;100285.13;;;-1.49;84.98
12594;BME280;6362;50.208;9.182;2023-03-16T03:41:33;100282.56;;;-1.49;84.89
12594;BME280;6362;50.208;9.182;2023-03-16T03:43:59;100275.72;;;-1.50;84.97
12594;BME280;6362;50.208;9.182;2023-03-16T03:46:25;100275.63;;;-1.51;84.73
12594;BME280;6362;50.208;9.182;2023-03-16T03:48:51;100276.50;;;-1.51;85.44
12594;BME280;6362;50.208;9.182;2023-03-16T03:51:16;100281.78;;;-1.48;84.86
12594;BME280;6362;50.208;9.182;2023-03-16T03:53:42;100281.50;;;-1.54;85.43
12594;BME280;6362;50.208;9.182;2023-03-16T03:56:08;100279.75;;;-1.55;85.62
12594;BME280;6362;50.208;9.182;2023-03-16T03:58:33;100275.50;;;-1.54;85.78
12594;BME280;6362;50.208;9.182;2023-03-16T04:00:59;100287.47;;;-1.53;85.38
12594;BME280;6362;50.208;9.182;2023-03-16T04:03:25;100280.03;;;-1.49;85.57
12594;BME280;6362;50.208;9.182;2023-03-16T04:05:50;100279.81;;;-1.53;85.65
12594;BME280;6362;50.208;9.182;2023-03-16T04:08:16;100276.66;;;-1.48;86.25
12594;BME280;6362;50.208;9.182;2023-03-16T04:10:41;100285.19;;;-1.47;85.86
12594;BME280;6362;50.208;9.182;2023-03-16T04:13:07;100285.63;;;-1.38;85.48
12594;BME280;6362;50.208;9.182;2023-03-16T04:15:32;100274.59;;;-1.37;85.61
12594;BME280;6362;50.208;9.182;2023-03-16T04:17:58;100276.28;;;-1.38;85.53
12594;BME280;6362;50.208;9.182;2023-03-16T04:20:24;100276.19;;;-1.39;85.26
12594;BME280;6362;50.208;9.182;2023-03-16T04:22:49;100271.31;;;-1.35;85.51
12594;BME280;6362;50.208;9.182;2023-03-16T04:25:22;100281.66;;;-1.31;85.42
12594;BME280;6362;50.208;9.182;2023-03-16T04:27:49;100276.50;;;-1.33;85.59
12594;BME280;6362;50.208;9.182;2023-03-16T04:30:15;100271.25;;;-1.36;85.26
12594;BME280;6362;50.208;9.182;2023-03-16T04:32:41;100274.66;;;-1.36;85.61
12594;BME280;6362;50.208;9.182;2023-03-16T04:35:07;100264.53;;;-1.34;85.48
12594;BME280;6362;50.208;9.182;2023-03-16T04:37:33;100261.25;;;-1.31;85.49
12594;BME280;6362;50.208;9.182;2023-03-16T04:39:59;100268.31;;;-1.26;85.40
12594;BME280;6362;50.208;9.182;2023-03-16T04:42:24;100270.81;;;-1.27;85.35
12594;BME280;6362;50.208;9.182;2023-03-16T04:44:49;100264.03;;;-1.27;85.12
12594;BME280;6362;50.208;9.182;2023-03-16T04:47:15;100262.47;;;-1.23;84.91
12594;BME280;6362;50.208;9.182;2023-03-16T04:49:41;100266.91;;;-1.19;85.36
12594;BME280;6362;50.208;9.182;2023-03-16T04:52:08;100263.41;;;-1.21;84.89
12594;BME280;6362;50.208;9.182;2023-03-16T04:54:34;100270.22;;;-1.22;85.23
12594;BME280;6362;50.208;9.182;2023-03-16T04:56:59;100264.88;;;-1.26;85.01
12594;BME280;6362;50.208;9.182;2023-03-16T04:59:28;100274.81;;;-1.33;85.35
12594;BME280;6362;50.208;9.182;2023-03-16T05:01:54;100268.09;;;-1.30;84.97
12594;BME280;6362;50.208;9.182;2023-03-16T05:04:19;100269.84;;;-1.29;85.54
12594;BME280;6362;50.208;9.182;2023-03-16T05:06:47;100264.13;;;-1.24;85.45
12594;BME280;6362;50.208;9.182;2023-03-16T05:09:12;100269.03;;;-1.28;85.04
12594;BME280;6362;50.208;9.182;2023-03-16T05:11:38;100266.56;;;-1.27;85.33
12594;BME280;6362;50.208;9.182;2023-03-16T05:14:04;100265.97;;;-1.21;85.11
12594;BME280;6362;50.208;9.182;2023-03-16T05:16:30;100261.31;;;-1.30;84.83
12594;BME280;6362;50.208;9.182;2023-03-16T05:18:59;100268.16;;;-1.29;85.21
12594;BME280;6362;50.208;9.182;2023-03-16T05:21:25;100259.84;;;-1.25;84.93
12594;BME280;6362;50.208;9.182;2023-03-16T05:23:50;100258.81;;;-1.28;84.99
12594;BME280;6362;50.208;9.182;2023-03-16T05:26:16;100259.84;;;-1.25;84.67
12594;BME280;6362;50.208;9.182;2023-03-16T05:28:43;100249.63;;;-1.25;85.26
12594;BME280;6362;50.208;9.182;2023-03-16T05:31:08;100249.50;;;-1.28;84.99
12594;BME280;6362;50.208;9.182;2023-03-16T05:33:34;100258.22;;;-1.23;84.67
12594;BME280;6362;50.208;9.182;2023-03-16T05:36:00;100261.66;;;-1.22;85.06
12594;BME280;6362;50.208;9.182;2023-03-16T05:38:27;100260.88;;;-1.21;85.39
12594;BME280;6362;50.208;9.182;2023-03-16T05:40:53;100264.09;;;-1.25;85.07
12594;BME280;6362;50.208;9.182;2023-03-16T05:43:21;100269.41;;;-1.21;84.75
12594;BME280;6362;50.208;9.182;2023-03-16T05:45:47;100260.72;;;-1.24;84.65
12594;BME280;6362;50.208;9.182;2023-03-16T05:48:13;100259.31;;;-1.18;84.17
12594;BME280;6362;50.208;9.182;2023-03-16T05:50:41;100261.66;;;-1.22;84.42
12594;BME280;6362;50.208;9.182;2023-03-16T05:53:07;100264.41;;;-1.18;84.36
12594;BME280;6362;50.208;9.182;2023-03-16T05:55:33;100259.78;;;-1.26;84.16
12594;BME280;6362;50.208;9.182;2023-03-16T05:57:58;100262.41;;;-1.25;84.06
12594;BME280;6362;50.208;9.182;2023-03-16T06:00:24;100258.81;;;-1.28;84.04
12594;BME280;6362;50.208;9.182;2023-03-16T06:02:50;100261.31;;;-1.30;84.66
12594;BME280;6362;50.208;9.182;2023-03-16T06:05:17;100259.56;;;-1.31;84.75
12594;BME280;6362;50.208;9.182;2023-03-16T06:07:44;100249.59;;;-1.26;84.30
12594;BME280;6362;50.208;9.182;2023-03-16T06:10:10;100262.41;;;-1.25;84.74
12594;BME280;6362;50.208;9.182;2023-03-16T06:12:36;100257.44;;;-1.22;84.11
12594;BME280;6362;50.208;9.182;2023-03-16T06:15:03;100256.75;;;-1.18;84.64
12594;BME280;6362;50.208;9.182;2023-03-16T06:17:32;100254.19;;;-1.18;84.30
12594;BME280;6362;50.208;9.182;2023-03-16T06:19:57;100250.84;;;-1.17;84.11
12594;BME280;6362;50.208;9.182;2023-03-16T06:22:23;100254.34;;;-1.15;84.29
12594;BME280;6362;50.208;9.182;2023-03-16T06:24:49;100258.69;;;-1.12;83.94
12594;BME280;6362;50.208;9.182;2023-03-16T06:27:15;100263.16;;;-1.08;83.77
12594;BME280;6362;50.208;9.182;2023-03-16T06:29:40;100263.75;;;-1.14;83.86
12594;BME280;6362;50.208;9.182;2023-03-16T06:32:06;100269.72;;;-1.13;84.63
12594;BME280;6362;50.208;9.182;2023-03-16T06:34:31;100283.56;;;-1.08;84.12
12594;BME280;6362;50.208;9.182;2023-03-16T06:36:58;100277.13;;;-1.00;84.04
12594;BME280;6362;50.208;9.182;2023-03-16T06:39:23;100276.59;;;-0.93;83.58
12594;BME280;6362;50.208;9.182;2023-03-16T06:41:49;100272.28;;;-0.94;83.79
12594;BME280;6362;50.208;9.182;2023-03-16T06:44:15;100273.63;;;-0.83;83.53
12594;BME280;6362;50.208;9.182;2023-03-16T06:46:41;100268.19;;;-0.71;83.05
12594;BME280;6362;50.208;9.182;2023-03-16T06:49:06;100263.34;;;-0.65;82.98
12594;BME280;6362;50.208;9.182;2023-03-16T06:51:32;100264.50;;;-0.57;82.59
12594;BME280;6362;50.208;9.182;2023-03-16T06:53:57;100273.44;;;-0.47;82.84
12594;BME280;6362;50.208;9.182;2023-03-16T06:56:23;100270.28;;;-0.41;82.55
12594;BME280;6362;50.208;9.182;2023-03-16T06:58:49;100272.72;;;-0.23;82.76
12594;BME280;6362;50.208;9.182;2023-03-16T07:01:14;100271.91;;;-0.02;82.85
12594;BME280;6362;50.208;9.182;2023-03-16T07:03:40;100271.66;;;0.13;82.43
12594;BME280;6362;50.208;9.182;2023-03-16T07:06:06;100272.34;;;0.32;81.45
12594;BME280;6362;50.208;9.182;2023-03-16T07:08:33;100274.47;;;0.42;80.18
12594;BME280;6362;50.208;9.182;2023-03-16T07:10:58;100275.78;;;0.55;79.58
12594;BME280;6362;50.208;9.182;2023-03-16T07:13:24;100271.53;;;0.77;77.58
12594;BME280;6362;50.208;9.182;2023-03-16T07:15:50;100269.66;;;0.96;77.31
12594;BME280;6362;50.208;9.182;2023-03-16T07:18:19;100282.03;;;1.08;76.66
12594;BME280;6362;50.208;9.182;2023-03-16T07:20:45;100278.22;;;1.20;76.03
12594;BME280;6362;50.208;9.182;2023-03-16T07:23:10;100275.31;;;2.11;83.12
12594;BME280;6362;50.208;9.182;2023-03-16T07:25:37;100282.91;;;2.35;77.26
12594;BME280;6362;50.208;9.182;2023-03-16T07:28:02;100272.59;;;2.61;73.69
12594;BME280;6362;50.208;9.182;2023-03-16T07:30:28;100266.47;;;2.57;71.43
12594;BME280;6362;50.208;9.182;2023-03-16T07:32:54;100260.13;;;2.75;71.21
12594;BME280;6362;50.208;9.182;2023-03-16T07:35:19;100254.25;;;3.09;71.70
12594;BME280;6362;50.208;9.182;2023-03-16T07:37:45;100266.16;;;2.77;68.43
12594;BME280;6362;50.208;9.182;2023-03-16T07:40:11;100264.94;;;2.64;69.74
12594;BME280;6362;50.208;9.182;2023-03-16T07:42:38;100270.75;;;2.57;68.09
12594;BME280;6362;50.208;9.182;2023-03-16T07:45:04;100262.16;;;2.56;69.54
12594;BME280;6362;50.208;9.182;2023-03-16T07:47:30;100263.78;;;2.54;69.78
12594;BME280;6362;50.208;9.182;2023-03-16T07:49:57;100266.69;;;2.65;69.72
12594;BME280;6362;50.208;9.182;2023-03-16T07:52:23;100258.16;;;2.66;71.20
12594;BME280;6362;50.208;9.182;2023-03-16T07:54:49;100258.94;;;2.63;70.27
12594;BME280;6362;50.208;9.182;2023-03-16T07:57:14;100260.78;;;2.68;69.43
12594;BME280;6362;50.208;9.182;2023-03-16T07:59:40;100261.09;;;2.78;71.26
12594;BME280;6362;50.208;9.182;2023-03-16T08:02:09;100263.03;;;2.87;71.65
12594;BME280;6362;50.208;9.182;2023-03-16T08:04:35;100260.63;;;2.91;69.97
12594;BME280;6362;50.208;9.182;2023-03-16T08:07:01;100259.09;;;2.98;69.31
12594;BME280;6362;50.208;9.182;2023-03-16T08:09:26;100258.66;;;3.13;69.30
12594;BME280;6362;50.208;9.182;2023-03-16T08:11:52;100252.16;;;3.27;68.35
12594;BME280;6362;50.208;9.182;2023-03-16T08:14:18;100250.09;;;3.46;69.60
12594;BME280;6362;50.208;9.182;2023-03-16T08:16:43;100255.16;;;3.42;68.12
12594;BME280;6362;50.208;9.182;2023-03-16T08:19:09;100246.28;;;3.64;68.60
12594;BME280;6362;50.208;9.182;2023-03-16T08:21:35;100257.94;;;3.83;67.93
12594;BME280;6362;50.208;9.182;2023-03-16T08:24:01;100249.84;;;4.04;65.93
12594;BME280;6362;50.208;9.182;2023-03-16T08:26:26;100252.94;;;4.27;65.39
12594;BME280;6362;50.208;9.182;2023-03-16T08:28:52;100249.88;;;4.43;64.68
12594;BME280;6362;50.208;9.182;2023-03-16T08:31:18;100254.59;;;4.61;65.66
12594;BME280;6362;50.208;9.182;2023-03-16T08:33:47;100252.91;;;4.63;64.31
12594;BME280;6362;50.208;9.182;2023-03-16T08:36:15;100252.59;;;4.89;64.45
12594;BME280;6362;50.208;9.182;2023-03-16T08:38:41;100255.56;;;5.09;63.78
12594;BME280;6362;50.208;9.182;2023-03-16T08:41:08;100243.84;;;5.24;62.49
12594;BME280;6362;50.208;9.182;2023-03-16T08:43:34;100251.22;;;5.51;62.72
12594;BME280;6362;50.208;9.182;2023-03-16T08:46:01;100255.72;;;5.63;62.14
12594;BME280;6362;50.208;9.182;2023-03-16T08:48:28;100254.00;;;5.64;60.55
12594;BME280;6362;50.208;9.182;2023-03-16T08:50:54;100254.41;;;5.88;61.11
12594;BME280;6362;50.208;9.182;2023-03-16T08:53:20;100253.53;;;5.86;59.94
12594;BME280;6362;50.208;9.182;2023-03-16T08:55:46;100244.13;;;5.90;60.22
12594;BME280;6362;50.208;9.182;2023-03-16T08:58:12;100242.72;;;6.07;59.77
12594;BME280;6362;50.208;9.182;2023-03-16T09:00:38;100241.94;;;6.13;58.88
12594;BME280;6362;50.208;9.182;2023-03-16T09:03:04;100238.69;;;6.26;56.71
12594;BME280;6362;50.208;9.182;2023-03-16T09:05:30;100239.72;;;6.37;59.09
12594;BME280;6362;50.208;9.182;2023-03-16T09:07:57;100241.50;;;6.43;56.85
12594;BME280;6362;50.208;9.182;2023-03-16T09:10:23;100236.63;;;6.61;56.63
12594;BME280;6362;50.208;9.182;2023-03-16T09:12:49;100222.06;;;6.69;55.70
12594;BME280;6362;50.208;9.182;2023-03-16T09:15:17;100222.28;;;6.86;55.92
12594;BME280;6362;50.208;9.182;2023-03-16T09:17:44;100217.84;;;6.77;55.03
12594;BME280;6362;50.208;9.182;2023-03-16T09:20:11;100217.75;;;6.67;56.04
12594;BME280;6362;50.208;9.182;2023-03-16T09:22:37;100217.09;;;6.84;55.18
12594;BME280;6362;50.208;9.182;2023-03-16T09:25:07;100213.97;;;7.11;55.32
12594;BME280;6362;50.208;9.182;2023-03-16T09:27:35;100215.06;;;7.35;55.02
12594;BME280;6362;50.208;9.182;2023-03-16T09:30:04;100213.38;;;7.40;52.22
12594;BME280;6362;50.208;9.182;2023-03-16T09:32:32;100212.78;;;7.70;53.19
12594;BME280;6362;50.208;9.182;2023-03-16T09:34:58;100211.97;;;7.73;51.36
12594;BME280;6362;50.208;9.182;2023-03-16T09:37:24;100201.88;;;8.08;51.46
12594;BME280;6362;50.208;9.182;2023-03-16T09:39:51;100214.94;;;8.23;50.59
12594;BME280;6362;50.208;9.182;2023-03-16T09:42:35;100205.63;;;8.54;49.57
12594;BME280;6362;50.208;9.182;2023-03-16T09:45:12;100206.50;;;8.56;49.08
12594;BME280;6362;50.208;9.182;2023-03-16T09:47:40;100216.03;;;8.63;49.51
12594;BME280;6362;50.208;9.182;2023-03-16T09:50:10;100211.72;;;8.61;48.99
12594;BME280;6362;50.208;9.182;2023-03-16T09:55:11;100205.72;;;8.77;49.88
12594;BME280;6362;50.208;9.182;2023-03-16T09:57:42;100195.50;;;9.11;48.46
12594;BME280;6362;50.208;9.182;2023-03-16T10:00:24;100205.88;;;9.24;49.37
12594;BME280;6362;50.208;9.182;2023-03-16T10:05:46;100200.75;;;9.64;45.51
12594;BME280;6362;50.208;9.182;2023-03-16T10:13:43;100186.00;;;10.09;46.77
12594;BME280;6362;50.208;9.182;2023-03-16T10:16:21;100191.19;;;10.32;44.90
12594;BME280;6362;50.208;9.182;2023-03-16T10:18:52;100193.78;;;10.37;44.45
12594;BME280;6362;50.208;9.182;2023-03-16T10:21:22;100193.72;;;10.63;45.19
12594;BME280;6362;50.208;9.182;2023-03-16T10:23:49;100185.94;;;10.52;44.86
12594;BME280;6362;50.208;9.182;2023-03-16T10:26:21;100179.75;;;10.83;44.82
12594;BME280;6362;50.208;9.182;2023-03-16T10:28:48;100190.13;;;10.87;43.56
12594;BME280;6362;50.208;9.182;2023-03-16T10:31:15;100191.09;;;10.64;44.04
12594;BME280;6362;50.208;9.182;2023-03-16T10:33:41;100193.72;;;10.58;44.40
12594;BME280;6362;50.208;9.182;2023-03-16T10:38:53;100198.56;;;11.33;41.76
12594;BME280;6362;50.208;9.182;2023-03-16T10:41:28;100188.25;;;11.13;41.40
12594;BME280;6362;50.208;9.182;2023-03-16T10:43:58;100202.75;;;11.54;41.05
12594;BME280;6362;50.208;9.182;2023-03-16T10:46:27;100206.41;;;11.28;42.65
12594;BME280;6362;50.208;9.182;2023-03-16T10:48:55;100206.22;;;11.54;41.03
12594;BME280;6362;50.208;9.182;2023-03-16T10:51:26;100210.50;;;11.64;41.84
12594;BME280;6362;50.208;9.182;2023-03-16T10:53:56;100211.25;;;11.85;41.39
12594;BME280;6362;50.208;9.182;2023-03-16T10:56:32;100203.47;;;11.71;40.06
12594;BME280;6362;50.208;9.182;2023-03-16T10:58:59;100206.00;;;11.89;42.14
12594;BME280;6362;50.208;9.182;2023-03-16T11:01:27;100194.47;;;12.13;41.49
12594;BME280;6362;50.208;9.182;2023-03-16T11:03:57;100182.53;;;11.89;40.24
12594;BME280;6362;50.208;9.182;2023-03-16T11:06:25;100186.09;;;11.75;41.09
12594;BME280;6362;50.208;9.182;2023-03-16T11:09:06;100182.59;;;11.76;40.85
12594;BME280;6362;50.208;9.182;2023-03-16T11:11:35;100173.91;;;11.80;40.90
12594;BME280;6362;50.208;9.182;2023-03-16T11:14:02;100170.41;;;11.85;40.39
12594;BME280;6362;50.208;9.182;2023-03-16T11:19:28;100171.63;;;11.35;40.62
12594;BME280;6362;50.208;9.182;2023-03-16T11:22:17;100168.47;;;10.80;43.09
12594;BME280;6362;50.208;9.182;2023-03-16T11:25:12;100164.16;;;10.80;41.01
12594;BME280;6362;50.208;9.182;2023-03-16T11:27:52;100159.81;;;10.79;43.44
12594;BME280;6362;50.208;9.182;2023-03-16T11:32:53;100152.63;;;11.27;41.49
12594;BME280;6362;50.208;9.182;2023-03-16T11:40:44;100143.50;;;11.83;40.39
12594;BME280;6362;50.208;9.182;2023-03-16T11:46:22;100144.47;;;12.56;38.85
12594;BME280;6362;50.208;9.182;2023-03-16T11:48:56;100154.56;;;12.07;39.36
12594;BME280;6362;50.208;9.182;2023-03-16T11:51:34;100141.44;;;12.16;39.69
12594;BME280;6362;50.208;9.182;2023-03-16T11:56:33;100133.47;;;12.28;40.63
12594;BME280;6362;50.208;9.182;2023-03-16T12:15:31;100129.09;;;11.35;41.32
12594;BME280;6362;50.208;9.182;2023-03-16T12:18:25;100116.13;;;12.27;42.33
12594;BME280;6362;50.208;9.182;2023-03-16T12:20:57;100103.06;;;12.27;39.40
12594;BME280;6362;50.208;9.182;2023-03-16T12:23:37;100103.19;;;12.17;38.74
12594;BME280;6362;50.208;9.182;2023-03-16T12:26:05;100111.31;;;11.86;39.30
12594;BME280;6362;50.208;9.182;2023-03-16T12:28:30;100111.75;;;11.34;40.43
12594;BME280;6362;50.208;9.182;2023-03-16T12:49:47;100084.72;;;12.35;40.94
12594;BME280;6362;50.208;9.182;2023-03-16T12:52:13;100081.72;;;13.26;39.33
12594;BME280;6362;50.208;9.182;2023-03-16T12:57:16;100081.78;;;13.21;40.59
12594;BME280;6362;50.208;9.182;2023-03-16T12:59:44;100064.41;;;13.15;37.83
12594;BME280;6362;50.208;9.182;2023-03-16T13:02:23;100071.13;;;12.78;38.73
12594;BME280;6362;50.208;9.182;2023-03-16T13:05:08;100061.13;;;13.06;38.93
12594;BME280;6362;50.208;9.182;2023-03-16T13:07:35;100055.41;;;12.79;39.08
12594;BME280;6362;50.208;9.182;2023-03-16T13:10:11;100042.63;;;11.95;40.60
12594;BME280;6362;50.208;9.182;2023-03-16T13:12:39;100046.00;;;12.01;41.96
12594;BME280;6362;50.208;9.182;2023-03-16T13:17:48;100045.03;;;12.11;41.76
12594;BME280;6362;50.208;9.182;2023-03-16T13:20:28;100043.16;;;12.23;40.63
12594;BME280;6362;50.208;9.182;2023-03-16T13:26:16;100041.28;;;12.34;41.64
12594;BME280;6362;50.208;9.182;2023-03-16T13:28:50;100046.84;;;12.69;42.05
12594;BME280;6362;50.208;9.182;2023-03-16T13:37:17;100021.41;;;13.38;39.62
12594;BME280;6362;50.208;9.182;2023-03-16T13:39:58;100030.44;;;13.22;39.45
12594;BME280;6362;50.208;9.182;2023-03-16T13:42:29;100014.59;;;12.75;40.60
12594;BME280;6362;50.208;9.182;2023-03-16T13:45:07;100004.28;;;12.03;42.10
12594;BME280;6362;50.208;9.182;2023-03-16T13:47:41;100002.22;;;11.52;43.74
12594;BME280;6362;50.208;9.182;2023-03-16T13:50:11;99999.75;;;11.37;44.57
12594;BME280;6362;50.208;9.182;2023-03-16T13:52:38;100003.25;;;11.34;44.38
12594;BME280;6362;50.208;9.182;2023-03-16T13:55:15;99989.69;;;10.99;45.45
12594;BME280;6362;50.208;9.182;2023-03-16T13:57:43;99979.47;;;10.74;45.91
12594;BME280;6362;50.208;9.182;2023-03-16T14:02:43;99995.00;;;10.87;45.41
12594;BME280;6362;50.208;9.182;2023-03-16T14:05:27;99987.19;;;10.87;45.36
12594;BME280;6362;50.208;9.182;2023-03-16T14:07:55;99992.31;;;10.97;45.62
12594;BME280;6362;50.208;9.182;2023-03-16T14:10:23;99993.16;;;10.98;45.35
12594;BME280;6362;50.208;9.182;2023-03-16T14:12:54;99983.53;;;11.09;45.14
12594;BME280;6362;50.208;9.182;2023-03-16T14:15:21;99986.81;;;11.29;44.44
12594;BME280;6362;50.208;9.182;2023-03-16T14:17:50;99982.28;;;11.50;44.12
12594;BME280;6362;50.208;9.182;2023-03-16T14:20:21;99970.19;;;12.18;43.13
12594;BME280;6362;50.208;9.182;2023-03-16T14:22:51;99967.34;;;12.92;41.94
12594;BME280;6362;50.208;9.182;2023-03-16T14:25:22;99965.03;;;13.26;40.66
12594;BME280;6362;50.208;9.182;2023-03-16T14:28:00;99963.72;;;13.01;41.00
12594;BME280;6362;50.208;9.182;2023-03-16T14:30:28;99955.03;;;13.00;41.74
12594;BME280;6362;50.208;9.182;2023-03-16T14:35:39;99935.06;;;12.98;41.97
12594;BME280;6362;50.208;9.182;2023-03-16T14:38:21;99931.91;;;13.30;40.83
12594;BME280;6362;50.208;9.182;2023-03-16T14:41:00;99935.66;;;13.60;40.42